createdAt,value
2022-11-16T00:01:18.482Z,5.40
2022-11-16T00:03:46.921Z,5.00
2022-11-16T00:06:16.533Z,5.00
2022-11-16T00:09:06.862Z,5.00
2022-11-16T00:11:37.482Z,5.40
2022-11-16T00:14:06.377Z,5.30
2022-11-16T00:16:34.883Z,5.10
2022-11-16T00:19:04.689Z,5.10
2022-11-16T00:21:33.323Z,5.50
2022-11-16T00:24:01.675Z,5.50
2022-11-16T00:26:30.096Z,5.10
2022-11-16T00:28:59.848Z,5.40
2022-11-16T00:31:27.910Z,5.10
2022-11-16T00:33:56.086Z,5.20
2022-11-16T00:36:24.159Z,5.20
2022-11-16T00:38:53.873Z,5.20
2022-11-16T00:41:22.068Z,5.20
2022-11-16T00:43:50.140Z,6.00
2022-11-16T00:46:19.776Z,5.60
2022-11-16T00:48:48.086Z,5.10
2022-11-16T00:51:16.143Z,5.20
2022-11-16T00:53:44.116Z,5.20
2022-11-16T00:56:12.100Z,5.20
2022-11-16T00:58:40.059Z,5.30
2022-11-16T01:01:10.367Z,5.20
2022-11-16T01:03:40.481Z,5.40
2022-11-16T01:06:11.169Z,5.50
2022-11-16T01:08:41.334Z,5.10
2022-11-16T01:11:27.953Z,5.10
2022-11-16T01:13:56.960Z,5.10
2022-11-16T01:16:25.317Z,5.20
2022-11-16T01:18:56.165Z,5.30
2022-11-16T01:21:24.864Z,5.90
2022-11-16T01:23:55.887Z,6.10
2022-11-16T01:26:24.062Z,5.10
2022-11-16T01:28:52.144Z,5.10
2022-11-16T01:31:20.373Z,4.70
2022-11-16T01:33:48.499Z,5.20
2022-11-16T01:36:18.305Z,5.10
2022-11-16T01:38:48.303Z,5.10
2022-11-16T01:41:19.426Z,5.20
2022-11-16T01:43:57.192Z,5.10
2022-11-16T01:46:26.670Z,5.90
2022-11-16T01:48:59.638Z,5.10
2022-11-16T01:51:29.476Z,5.10
2022-11-16T01:53:57.906Z,5.10
2022-11-16T01:56:26.815Z,5.10
2022-11-16T01:58:55.254Z,5.10
2022-11-16T02:01:24.249Z,5.40
2022-11-16T02:03:52.369Z,5.10
2022-11-16T02:06:50.121Z,5.00
2022-11-16T02:09:53.862Z,5.30
2022-11-16T02:12:38.718Z,5.50
2022-11-16T02:15:16.123Z,5.00
2022-11-16T02:17:53.165Z,5.00
2022-11-16T02:20:49.272Z,5.20
2022-11-16T02:23:52.922Z,5.10
2022-11-16T02:26:40.633Z,5.10
2022-11-16T02:29:24.223Z,5.00
2022-11-16T02:32:00.099Z,5.00
2022-11-16T02:34:33.089Z,5.00
2022-11-16T02:37:04.186Z,5.10
2022-11-16T02:39:33.825Z,5.10
2022-11-16T02:42:06.143Z,5.90
2022-11-16T02:44:37.356Z,5.10
2022-11-16T02:47:08.638Z,5.10
2022-11-16T02:49:40.221Z,5.10
2022-11-16T02:52:09.190Z,5.10
2022-11-16T02:54:37.172Z,5.30
2022-11-16T02:57:29.714Z,5.90
2022-11-16T03:00:01.698Z,5.20
2022-11-16T03:02:35.017Z,5.30
2022-11-16T03:05:06.923Z,5.20
2022-11-16T03:07:45.722Z,5.20
2022-11-16T03:10:34.850Z,5.80
2022-11-16T03:13:03.805Z,5.80
2022-11-16T03:15:35.314Z,5.20
2022-11-16T03:18:04.453Z,5.20
2022-11-16T03:20:35.164Z,5.20
2022-11-16T03:23:06.905Z,5.60
2022-11-16T03:25:41.097Z,5.20
2022-11-16T03:28:14.383Z,5.90
2022-11-16T03:30:50.541Z,5.10
2022-11-16T03:33:23.415Z,5.10
2022-11-16T03:35:57.419Z,5.10
2022-11-16T03:38:28.526Z,5.10
2022-11-16T03:41:00.322Z,5.50
2022-11-16T03:43:29.260Z,5.20
2022-11-16T03:46:00.240Z,5.20
2022-11-16T03:48:35.601Z,5.10
2022-11-16T03:51:04.496Z,5.70
2022-11-16T03:53:32.746Z,5.20
2022-11-16T03:56:00.943Z,5.20
2022-11-16T03:58:28.981Z,5.20
2022-11-16T04:00:58.343Z,5.20
2022-11-16T04:03:26.446Z,5.20
2022-11-16T04:06:12.031Z,5.30
2022-11-16T04:08:57.547Z,5.30
2022-11-16T04:11:43.120Z,5.30
2022-11-16T04:14:32.633Z,5.70
2022-11-16T04:17:19.384Z,5.30
2022-11-16T04:20:04.818Z,5.30
2022-11-16T04:22:52.853Z,6.00
2022-11-16T04:25:24.698Z,5.30
2022-11-16T04:28:11.004Z,5.30
2022-11-16T04:30:53.256Z,6.20
2022-11-16T04:33:40.404Z,5.30
2022-11-16T04:36:26.752Z,5.30
2022-11-16T04:38:54.746Z,5.30
2022-11-16T04:41:40.400Z,5.30
2022-11-16T04:44:08.406Z,5.60
2022-11-16T04:46:54.017Z,5.30
2022-11-16T04:49:23.368Z,5.30
2022-11-16T04:51:51.399Z,5.30
2022-11-16T04:54:19.858Z,5.30
2022-11-16T04:56:47.971Z,5.30
2022-11-16T04:59:16.900Z,5.30
2022-11-16T05:02:02.241Z,5.20
2022-11-16T05:04:31.633Z,5.30
2022-11-16T05:06:59.740Z,5.30
2022-11-16T05:09:27.825Z,6.20
2022-11-16T05:11:55.795Z,5.30
2022-11-16T05:14:23.780Z,5.20
2022-11-16T05:16:51.721Z,5.20
2022-11-16T05:19:37.408Z,5.30
2022-11-16T05:22:06.791Z,5.40
2022-11-16T05:24:34.790Z,5.50
2022-11-16T05:27:03.540Z,5.30
2022-11-16T05:29:32.149Z,5.20
2022-11-16T05:32:00.776Z,5.30
2022-11-16T05:34:29.212Z,5.80
2022-11-16T05:36:58.073Z,5.90
2022-11-16T05:39:27.784Z,5.30
2022-11-16T05:41:56.690Z,5.30
2022-11-16T05:44:24.945Z,5.30
2022-11-16T05:46:53.392Z,5.90
2022-11-16T05:49:21.480Z,5.40
2022-11-16T05:51:50.412Z,5.30
2022-11-16T05:54:20.165Z,5.80
2022-11-16T05:56:55.894Z,5.30
2022-11-16T05:59:24.827Z,5.30
2022-11-16T06:01:53.159Z,5.30
2022-11-16T06:04:24.758Z,6.20
2022-11-16T06:06:55.949Z,5.90
2022-11-16T06:09:24.116Z,5.40
2022-11-16T06:11:53.505Z,5.60
2022-11-16T06:14:21.538Z,5.90
2022-11-16T06:16:49.572Z,5.40
2022-11-16T06:19:17.612Z,5.40
2022-11-16T06:21:45.584Z,5.40
2022-11-16T06:24:13.617Z,5.40
2022-11-16T06:26:41.585Z,5.40
2022-11-16T06:29:10.883Z,5.40
2022-11-16T06:31:38.807Z,5.40
2022-11-16T06:34:06.770Z,5.50
2022-11-16T06:36:39.065Z,5.50
2022-11-16T06:39:07.100Z,5.90
2022-11-16T06:41:40.152Z,5.90
2022-11-16T06:44:10.661Z,5.50
2022-11-16T06:46:38.639Z,5.50
2022-11-16T06:49:06.652Z,5.70
2022-11-16T06:51:34.583Z,5.50
2022-11-16T06:54:02.509Z,5.80
2022-11-16T06:56:30.551Z,5.50
2022-11-16T06:58:58.585Z,5.50
2022-11-16T07:01:28.181Z,5.50
2022-11-16T07:03:57.752Z,5.50
2022-11-16T07:06:25.771Z,5.50
2022-11-16T07:08:53.766Z,5.50
2022-11-16T07:11:21.714Z,5.50
2022-11-16T07:13:49.970Z,5.50
2022-11-16T07:16:17.920Z,6.10
2022-11-16T07:18:47.204Z,5.50
2022-11-16T07:21:17.340Z,5.50
2022-11-16T07:23:45.670Z,5.50
2022-11-16T07:26:13.685Z,5.50
2022-11-16T07:28:47.711Z,5.40
2022-11-16T07:31:16.654Z,5.50
2022-11-16T07:33:44.644Z,5.50
2022-11-16T07:36:15.817Z,5.50
2022-11-16T07:38:43.996Z,5.50
2022-11-16T07:41:17.292Z,5.50
2022-11-16T07:43:51.498Z,5.40
2022-11-16T07:46:47.424Z,5.30
2022-11-16T07:49:14.576Z,6.10
2022-11-16T07:51:44.263Z,5.90
2022-11-16T07:54:13.502Z,5.20
2022-11-16T07:56:41.544Z,5.20
2022-11-16T07:59:09.777Z,5.20
2022-11-16T08:01:37.921Z,5.10
2022-11-16T08:04:05.927Z,5.10
2022-11-16T08:06:33.936Z,6.00
2022-11-16T08:09:04.126Z,5.20
2022-11-16T08:11:32.077Z,5.20
2022-11-16T08:14:00.185Z,5.20
2022-11-16T08:16:28.155Z,5.20
2022-11-16T08:18:56.105Z,5.20
2022-11-16T08:21:24.077Z,5.30
2022-11-16T08:23:57.847Z,5.30
2022-11-16T08:26:28.237Z,5.20
2022-11-16T08:28:57.262Z,5.30
2022-11-16T08:31:26.859Z,5.40
2022-11-16T08:33:55.802Z,5.20
2022-11-16T08:36:24.090Z,5.30
2022-11-16T08:38:53.432Z,5.20
2022-11-16T08:41:21.954Z,5.20
2022-11-16T08:43:53.448Z,5.30
2022-11-16T08:46:21.908Z,5.20
2022-11-16T08:48:50.060Z,5.40
2022-11-16T08:51:20.132Z,5.30
2022-11-16T08:53:49.536Z,5.40
2022-11-16T08:56:19.029Z,5.40
2022-11-16T08:58:47.941Z,5.40
2022-11-16T09:01:20.329Z,5.50
2022-11-16T09:03:48.766Z,6.00
2022-11-16T09:06:17.175Z,5.50
2022-11-16T09:08:47.417Z,5.60
2022-11-16T09:11:17.925Z,5.60
2022-11-16T09:13:47.508Z,5.60
2022-11-16T09:16:16.853Z,5.60
2022-11-16T09:18:47.209Z,5.70
2022-11-16T09:21:19.072Z,5.70
2022-11-16T09:23:47.696Z,5.70
2022-11-16T09:26:16.562Z,5.70
2022-11-16T09:28:44.586Z,5.70
2022-11-16T09:31:12.536Z,5.90
2022-11-16T09:33:40.831Z,5.80
2022-11-16T09:36:11.034Z,5.80
2022-11-16T09:39:13.889Z,5.70
2022-11-16T09:41:56.887Z,5.70
2022-11-16T09:44:42.234Z,5.80
2022-11-16T09:47:16.060Z,5.70
2022-11-16T09:49:48.595Z,5.70
2022-11-16T09:52:26.323Z,6.20
2022-11-16T09:54:55.929Z,5.70
2022-11-16T09:57:29.438Z,5.80
2022-11-16T10:00:03.479Z,5.80
2022-11-16T10:02:37.180Z,5.80
2022-11-16T10:05:14.857Z,5.80
2022-11-16T10:07:48.395Z,5.90
2022-11-16T10:10:19.094Z,5.90
2022-11-16T10:12:53.021Z,6.00
2022-11-16T10:15:41.751Z,5.90
2022-11-16T10:18:27.957Z,5.90
2022-11-16T10:21:08.770Z,6.00
2022-11-16T10:23:49.861Z,6.00
2022-11-16T10:26:27.383Z,6.00
2022-11-16T10:29:10.277Z,6.00
2022-11-16T10:31:58.215Z,6.00
2022-11-16T10:34:29.622Z,6.00
2022-11-16T10:37:04.469Z,6.00
2022-11-16T10:39:36.664Z,6.10
2022-11-16T10:42:07.840Z,6.10
2022-11-16T10:44:39.869Z,6.10
2022-11-16T10:47:16.010Z,6.10
2022-11-16T10:49:51.551Z,6.20
2022-11-16T10:52:19.912Z,6.20
2022-11-16T10:54:49.262Z,6.10
2022-11-16T10:57:17.886Z,6.10
2022-11-16T10:59:47.712Z,6.10
2022-11-16T11:02:32.169Z,6.10
2022-11-16T11:05:16.701Z,6.10
2022-11-16T11:07:52.111Z,6.10
2022-11-16T11:10:29.645Z,6.10
2022-11-16T11:13:08.184Z,6.10
2022-11-16T11:15:36.309Z,6.10
2022-11-16T11:18:19.368Z,6.10
2022-11-16T11:20:49.500Z,6.00
2022-11-16T11:23:19.792Z,6.00
2022-11-16T11:25:54.438Z,6.00
2022-11-16T11:28:26.596Z,6.00
2022-11-16T11:31:03.704Z,6.00
2022-11-16T11:33:35.361Z,5.90
2022-11-16T11:36:07.064Z,5.70
2022-11-16T11:38:36.733Z,5.40
2022-11-16T11:41:06.173Z,5.20
2022-11-16T11:43:35.240Z,5.20
2022-11-16T11:46:13.971Z,5.10
2022-11-16T11:48:48.965Z,4.90
2022-11-16T11:51:22.263Z,4.80
2022-11-16T11:53:56.477Z,4.80
2022-11-16T11:56:27.280Z,4.70
2022-11-16T11:58:56.031Z,4.60
2022-11-16T12:01:46.987Z,4.40
2022-11-16T12:05:00.270Z,4.30
2022-11-16T12:07:48.421Z,4.40
2022-11-16T12:10:26.918Z,4.30
2022-11-16T12:13:14.185Z,4.10
2022-11-16T12:15:58.144Z,4.10
2022-11-16T12:18:40.794Z,4.10
2022-11-16T12:21:14.265Z,4.10
2022-11-16T12:24:00.460Z,4.10
2022-11-16T12:26:37.443Z,3.90
2022-11-16T12:29:23.120Z,3.90
2022-11-16T12:32:10.045Z,3.90
2022-11-16T12:34:53.784Z,3.80
2022-11-16T12:37:30.739Z,4.30
2022-11-16T12:40:18.853Z,3.80
2022-11-16T12:42:56.385Z,3.70
2022-11-16T12:45:43.466Z,3.60
2022-11-16T12:48:41.899Z,4.70
2022-11-16T12:51:18.426Z,4.00
2022-11-16T12:54:04.792Z,3.50
2022-11-16T12:56:48.664Z,3.50
2022-11-16T12:59:39.925Z,3.50
2022-11-16T13:02:18.984Z,3.50
2022-11-16T13:04:51.390Z,3.50
2022-11-16T13:07:26.218Z,3.50
2022-11-16T13:10:01.785Z,3.70
2022-11-16T13:12:31.886Z,3.40
2022-11-16T13:15:03.338Z,3.40
2022-11-16T13:17:36.351Z,3.20
2022-11-16T13:20:22.963Z,3.20
2022-11-16T13:22:56.801Z,3.20
2022-11-16T13:25:31.519Z,3.20
2022-11-16T13:28:05.601Z,3.30
2022-11-16T13:30:42.552Z,3.20
2022-11-16T13:33:31.248Z,3.20
2022-11-16T13:35:59.291Z,3.20
2022-11-16T13:38:53.230Z,3.20
2022-11-16T13:41:29.409Z,3.30
2022-11-16T13:43:57.649Z,3.20
2022-11-16T13:47:01.556Z,3.30
2022-11-16T13:49:34.253Z,3.20
2022-11-16T13:52:22.123Z,3.10
2022-11-16T13:54:54.985Z,3.10
2022-11-16T13:57:26.276Z,3.10
2022-11-16T14:00:09.244Z,3.10
2022-11-16T14:02:38.958Z,3.10
2022-11-16T14:05:16.147Z,3.10
2022-11-16T14:07:47.376Z,3.10
2022-11-16T14:11:02.108Z,3.10
2022-11-16T14:13:40.613Z,3.00
2022-11-16T14:16:54.594Z,3.00
2022-11-16T14:19:52.876Z,3.00
2022-11-16T14:22:38.931Z,3.00
2022-11-16T14:25:15.253Z,3.00
2022-11-16T14:27:49.956Z,3.00
2022-11-16T14:30:22.300Z,3.00
2022-11-16T14:32:52.924Z,3.00
2022-11-16T14:35:29.992Z,3.00
2022-11-16T14:38:02.590Z,2.90
2022-11-16T14:40:31.824Z,2.90
2022-11-16T14:43:21.520Z,2.90
2022-11-16T14:45:54.282Z,3.00
2022-11-16T14:48:25.961Z,2.90
2022-11-16T14:51:07.671Z,2.90
2022-11-16T14:53:41.652Z,3.00
2022-11-16T14:56:11.753Z,3.00
2022-11-16T14:58:40.672Z,2.90
2022-11-16T15:01:14.706Z,3.00
2022-11-16T15:03:53.273Z,2.90
2022-11-16T15:06:22.074Z,3.00
2022-11-16T15:08:55.128Z,2.90
2022-11-16T15:11:47.256Z,3.10
2022-11-16T15:14:21.011Z,3.00
2022-11-16T15:16:53.043Z,3.00
2022-11-16T15:19:21.682Z,2.90
2022-11-16T15:21:54.723Z,2.90
2022-11-16T15:24:31.306Z,3.00
2022-11-16T15:27:19.968Z,3.00
2022-11-16T15:29:49.017Z,3.00
2022-11-16T15:32:18.614Z,3.00
2022-11-16T15:34:52.066Z,2.90
2022-11-16T15:37:28.265Z,3.10
2022-11-16T15:39:58.561Z,3.00
2022-11-16T15:42:29.348Z,3.80
2022-11-16T15:44:59.932Z,3.00
2022-11-16T15:47:29.253Z,3.00
2022-11-16T15:49:57.416Z,3.00
2022-11-16T15:52:47.268Z,3.10
2022-11-16T15:55:32.736Z,3.10
2022-11-16T15:58:08.070Z,3.00
2022-11-16T16:00:41.429Z,3.10
2022-11-16T16:03:20.049Z,3.10
2022-11-16T16:05:48.905Z,3.10
2022-11-16T16:08:34.658Z,3.10
2022-11-16T16:11:12.187Z,3.10
2022-11-16T16:13:41.875Z,3.10
2022-11-16T16:16:21.256Z,3.80
2022-11-16T16:18:50.016Z,3.10
2022-11-16T16:21:19.110Z,3.10
2022-11-16T16:23:48.851Z,3.10
2022-11-16T16:26:18.991Z,3.40
2022-11-16T16:28:47.965Z,3.10
2022-11-16T16:31:17.794Z,3.10
2022-11-16T16:33:49.866Z,3.20
2022-11-16T16:36:17.943Z,3.10
2022-11-16T16:38:46.270Z,3.20
2022-11-16T16:41:24.072Z,3.20
2022-11-16T16:43:52.813Z,3.20
2022-11-16T16:46:21.744Z,3.20
2022-11-16T16:48:50.212Z,3.20
2022-11-16T16:51:18.770Z,3.50
2022-11-16T16:53:47.011Z,4.20
2022-11-16T16:56:19.359Z,3.20
2022-11-16T16:58:47.841Z,3.20
2022-11-16T17:01:16.048Z,3.60
2022-11-16T17:03:44.201Z,3.30
2022-11-16T17:06:12.279Z,3.20
2022-11-16T17:08:40.286Z,3.20
2022-11-16T17:11:09.122Z,3.30
2022-11-16T17:13:38.558Z,3.30
2022-11-16T17:16:07.818Z,3.30
2022-11-16T17:18:35.806Z,3.30
2022-11-16T17:21:07.670Z,3.30
2022-11-16T17:23:36.452Z,3.30
2022-11-16T17:26:06.384Z,3.30
2022-11-16T17:28:34.974Z,3.30
2022-11-16T17:31:05.315Z,3.30
2022-11-16T17:33:35.765Z,3.30
2022-11-16T17:36:04.595Z,3.30
2022-11-16T17:38:33.229Z,3.30
2022-11-16T17:41:06.051Z,3.30
2022-11-16T17:43:34.814Z,3.40
2022-11-16T17:46:06.250Z,3.40
2022-11-16T17:48:34.635Z,3.30
2022-11-16T17:51:03.064Z,3.60
2022-11-16T17:53:32.917Z,3.40
2022-11-16T17:56:01.188Z,3.40
2022-11-16T17:58:30.139Z,3.40
2022-11-16T18:00:58.886Z,3.40
2022-11-16T18:03:28.510Z,3.40
2022-11-16T18:06:03.638Z,3.40
2022-11-16T18:08:32.544Z,3.40
2022-11-16T18:11:05.373Z,4.40
2022-11-16T18:13:34.144Z,3.60
2022-11-16T18:16:06.852Z,3.40
2022-11-16T18:18:36.793Z,3.40
2022-11-16T18:21:05.389Z,3.30
2022-11-16T18:23:34.590Z,3.30
2022-11-16T18:26:03.605Z,3.30
2022-11-16T18:28:31.652Z,3.30
2022-11-16T18:31:04.373Z,3.30
2022-11-16T18:33:32.755Z,3.20
2022-11-16T18:36:03.370Z,3.40
2022-11-16T18:38:31.579Z,3.40
2022-11-16T18:41:07.415Z,3.30
2022-11-16T18:43:36.194Z,3.30
2022-11-16T18:46:05.134Z,3.30
2022-11-16T18:48:33.205Z,3.30
2022-11-16T18:51:03.914Z,3.30
2022-11-16T18:53:33.373Z,3.30
2022-11-16T18:56:02.112Z,3.30
2022-11-16T19:01:20.277Z,3.30
2022-11-16T19:03:48.778Z,3.30
2022-11-16T19:06:18.502Z,3.30
2022-11-16T19:08:54.994Z,3.30
2022-11-16T19:11:24.714Z,3.30
2022-11-16T19:13:54.800Z,3.30
2022-11-16T19:16:23.607Z,3.30
2022-11-16T19:18:53.057Z,3.30
2022-11-16T19:21:23.040Z,3.30
2022-11-16T19:23:52.688Z,3.30
2022-11-16T19:26:22.197Z,3.40
2022-11-16T19:28:51.457Z,3.40
2022-11-16T19:31:22.898Z,3.50
2022-11-16T19:33:55.053Z,3.40
2022-11-16T19:36:25.754Z,3.40
2022-11-16T19:38:54.494Z,3.40
2022-11-16T19:41:23.185Z,3.40
2022-11-16T19:43:52.765Z,3.40
2022-11-16T19:46:21.638Z,3.40
2022-11-16T19:48:50.403Z,3.40
2022-11-16T19:51:20.226Z,3.40
2022-11-16T19:53:50.110Z,3.30
2022-11-16T19:56:19.676Z,3.40
2022-11-16T19:58:48.158Z,3.40
2022-11-16T20:01:18.092Z,3.40
2022-11-16T20:03:47.233Z,3.40
2022-11-16T20:06:17.657Z,3.40
2022-11-16T20:08:50.614Z,3.40
2022-11-16T20:11:20.818Z,3.50
2022-11-16T20:13:49.687Z,3.40
2022-11-16T20:16:19.733Z,3.90
2022-11-16T20:18:48.145Z,4.10
2022-11-16T20:21:20.694Z,4.00
2022-11-16T20:23:50.632Z,3.40
2022-11-16T20:26:20.101Z,3.40
2022-11-16T20:28:51.056Z,3.40
2022-11-16T20:31:20.824Z,3.60
2022-11-16T20:33:51.952Z,3.40
2022-11-16T20:36:20.406Z,3.40
2022-11-16T20:38:48.607Z,3.60
2022-11-16T20:41:20.516Z,4.10
2022-11-16T20:43:51.150Z,3.40
2022-11-16T20:46:21.022Z,3.40
2022-11-16T20:48:49.568Z,3.40
2022-11-16T20:51:19.134Z,3.40
2022-11-16T20:53:53.122Z,3.40
2022-11-16T20:56:23.488Z,3.40
2022-11-16T20:58:52.091Z,4.30
2022-11-16T21:01:28.322Z,3.40
2022-11-16T21:03:58.813Z,3.30
2022-11-16T21:06:27.450Z,3.40
2022-11-16T21:08:56.705Z,3.40
2022-11-16T21:11:29.073Z,3.40
2022-11-16T21:14:15.241Z,4.00
2022-11-16T21:16:43.634Z,3.40
2022-11-16T21:19:12.762Z,3.40
2022-11-16T21:21:41.588Z,3.40
2022-11-16T21:24:11.612Z,3.40
2022-11-16T21:26:41.325Z,3.40
2022-11-16T21:29:09.537Z,3.40
2022-11-16T21:31:38.405Z,3.30
2022-11-16T21:34:08.959Z,3.30
2022-11-16T21:36:40.135Z,3.40
2022-11-16T21:39:08.890Z,3.40
2022-11-16T21:41:37.350Z,3.40
2022-11-16T21:44:07.350Z,3.40
2022-11-16T21:46:35.395Z,4.00
2022-11-16T21:49:03.498Z,3.40
2022-11-16T21:51:31.901Z,3.30
2022-11-16T21:53:59.930Z,3.40
2022-11-16T21:56:28.090Z,3.40
2022-11-16T21:58:56.129Z,4.30
2022-11-16T22:01:25.579Z,3.40
2022-11-16T22:04:07.548Z,3.30
2022-11-16T22:06:53.273Z,3.30
2022-11-16T22:09:21.436Z,3.40
2022-11-16T22:11:49.587Z,3.40
2022-11-16T22:14:17.673Z,3.30
2022-11-16T22:16:47.234Z,3.40
2022-11-16T22:19:15.453Z,3.30
2022-11-16T22:21:43.601Z,3.30
2022-11-16T22:24:11.703Z,3.30
2022-11-16T22:26:41.170Z,3.30
2022-11-16T22:29:09.296Z,3.30
2022-11-16T22:31:37.413Z,3.30
2022-11-16T22:34:06.990Z,3.30
2022-11-16T22:36:35.122Z,3.30
2022-11-16T22:39:03.357Z,3.30
2022-11-16T22:41:31.621Z,3.30
2022-11-16T22:43:59.726Z,3.30
2022-11-16T22:46:27.875Z,3.90
2022-11-16T22:48:56.033Z,3.30
2022-11-16T22:51:27.203Z,3.30
2022-11-16T22:53:56.174Z,3.30
2022-11-16T22:56:25.184Z,3.30
2022-11-16T22:58:53.341Z,3.40
2022-11-16T23:01:21.875Z,3.30
2022-11-16T23:03:50.644Z,3.30
2022-11-16T23:06:19.134Z,3.30
2022-11-16T23:08:48.909Z,3.30
2022-11-16T23:11:36.276Z,3.30
2022-11-16T23:14:31.926Z,3.20
2022-11-16T23:17:00.338Z,3.30
2022-11-16T23:19:46.357Z,3.40
2022-11-16T23:22:33.358Z,3.20
2022-11-16T23:25:21.320Z,3.70
2022-11-16T23:27:56.247Z,3.20
2022-11-16T23:30:24.913Z,3.20
2022-11-16T23:32:53.356Z,3.20
2022-11-16T23:35:21.539Z,3.10
2022-11-16T23:37:54.730Z,3.10
2022-11-16T23:40:26.201Z,3.10
2022-11-16T23:43:12.615Z,3.00
2022-11-16T23:45:41.440Z,3.10
2022-11-16T23:48:11.108Z,3.10
2022-11-16T23:50:40.773Z,3.10
2022-11-16T23:53:10.242Z,3.10
2022-11-16T23:55:40.651Z,3.60
2022-11-16T23:58:13.094Z,3.00
